Terminal Aerodrome Forecast
Issued by NWS

Home | Current Version | Previous Version | Text Only | Print | Product List | Glossary On
Versions: 1 2 3 4 5 6 7 8 9 10 11 12
393
FTUS42 KTAE 162321
TAFECP
TAF
KECP 162321Z 1700/1724 34010KT P6SM BKN050
     FM170800 35010G15KT P6SM BKN025
     FM171100 35012G18KT 5SM -FZRAPL BKN015 OVC025
     FM171500 35013G20KT P6SM BKN025
     FM171600 35013G20KT P6SM SKC=

USA.gov is the U.S. government's official web portal to all federal, state and local government web resources and services.